createdAt,value
2019-05-16T00:04:48.180Z,44.80
2019-05-16T00:09:53.683Z,44.80
2019-05-16T00:14:59.812Z,44.70
2019-05-16T00:20:08.965Z,44.60
2019-05-16T00:25:14.331Z,44.60
2019-05-16T00:30:21.301Z,44.60
2019-05-16T00:35:28.579Z,44.60
2019-05-16T00:40:34.643Z,44.50
2019-05-16T00:45:41.421Z,44.60
2019-05-16T00:50:48.147Z,44.30
2019-05-16T00:55:54.601Z,44.50
2019-05-16T01:01:00.506Z,44.50
2019-05-16T01:06:18.387Z,44.50
2019-05-16T01:11:14.301Z,44.50
2019-05-16T01:16:20.243Z,44.50
2019-05-16T01:21:28.575Z,44.20
2019-05-16T01:26:35.581Z,44.40
2019-05-16T01:31:41.691Z,44.40
2019-05-16T01:36:48.586Z,44.50
2019-05-16T01:41:55.412Z,44.60
2019-05-16T01:47:01.195Z,44.60
2019-05-16T01:52:08.555Z,44.70
2019-05-16T01:57:14.743Z,44.70
2019-05-16T02:02:20.640Z,44.80
2019-05-16T02:07:28.356Z,44.80
2019-05-16T02:12:33.802Z,44.80
2019-05-16T02:17:40.552Z,44.80
2019-05-16T02:22:48.160Z,44.80
2019-05-16T02:27:54.251Z,44.90
2019-05-16T02:33:01.035Z,44.90
2019-05-16T02:38:07.073Z,45.00
2019-05-16T02:43:13.071Z,45.00
2019-05-16T02:48:21.416Z,44.90
2019-05-16T02:53:26.711Z,44.90
2019-05-16T02:58:32.472Z,45.00
2019-05-16T03:03:40.366Z,45.00
2019-05-16T03:08:46.425Z,44.90
2019-05-16T03:13:52.322Z,45.00
2019-05-16T03:19:01.042Z,45.00
2019-05-16T03:24:06.086Z,45.00
2019-05-16T03:29:11.729Z,45.10
2019-05-16T03:34:24.892Z,45.10
2019-05-16T03:39:25.358Z,45.10
2019-05-16T03:44:31.894Z,45.10
2019-05-16T03:49:37.768Z,45.10
2019-05-16T03:54:43.344Z,45.10
2019-05-16T03:59:51.595Z,45.10
2019-05-16T04:04:56.591Z,45.10
2019-05-16T04:10:03.331Z,45.10
2019-05-16T04:15:11.377Z,45.00
2019-05-16T04:20:21.234Z,45.00
2019-05-16T04:25:26.263Z,45.00
2019-05-16T04:30:31.699Z,44.90
2019-05-16T04:35:40.967Z,45.00
2019-05-16T04:40:45.438Z,44.90
2019-05-16T04:45:52.717Z,44.90
2019-05-16T04:51:01.349Z,44.90
2019-05-16T04:56:10.850Z,44.90
2019-05-16T05:01:15.951Z,44.90
2019-05-16T05:06:22.203Z,44.80
2019-05-16T05:11:30.681Z,44.80
2019-05-16T05:16:36.901Z,44.80
2019-05-16T05:21:44.388Z,44.90
2019-05-16T05:26:51.285Z,44.90
2019-05-16T05:31:57.051Z,44.90
2019-05-16T05:37:12.473Z,44.90
2019-05-16T05:42:23.448Z,44.80
2019-05-16T05:47:30.702Z,45.00
2019-05-16T05:52:37.847Z,45.00
2019-05-16T05:57:44.671Z,45.00
2019-05-16T06:02:51.272Z,45.00
2019-05-16T06:08:00.152Z,44.90
2019-05-16T06:13:07.217Z,44.90
2019-05-16T06:18:13.771Z,45.00
2019-05-16T06:23:20.871Z,33.90
2019-05-16T06:28:27.401Z,39.80
2019-05-16T06:33:33.364Z,41.20
2019-05-16T06:38:40.511Z,43.10
2019-05-16T06:43:50.658Z,44.20
2019-05-16T06:48:57.064Z,44.00
2019-05-16T06:54:03.831Z,44.00
2019-05-16T06:59:10.574Z,44.20
2019-05-16T07:04:16.300Z,44.20
2019-05-16T07:09:22.231Z,44.20
2019-05-16T07:14:28.966Z,44.20
2019-05-16T07:19:35.663Z,44.20
2019-05-16T07:24:41.840Z,44.20
2019-05-16T07:29:50.642Z,44.20
2019-05-16T07:34:56.940Z,44.30
2019-05-16T07:40:16.019Z,44.30
2019-05-16T07:45:11.460Z,44.30
2019-05-16T07:50:20.153Z,44.30
2019-05-16T07:55:26.021Z,44.30
2019-05-16T08:00:48.437Z,44.30
2019-05-16T08:05:41.181Z,44.20
2019-05-16T08:10:50.761Z,44.80
2019-05-16T08:15:55.923Z,44.20
2019-05-16T08:21:02.400Z,44.20
2019-05-16T08:26:10.314Z,44.30
2019-05-16T08:31:16.334Z,44.30
2019-05-16T08:36:22.745Z,44.30
2019-05-16T08:41:31.632Z,44.20
2019-05-16T08:46:41.149Z,43.40
2019-05-16T08:51:45.351Z,36.40
2019-05-16T08:56:51.261Z,34.80
2019-05-16T09:01:58.191Z,35.00
2019-05-16T09:07:04.932Z,35.50
2019-05-16T09:12:11.631Z,35.60
2019-05-16T09:17:18.245Z,36.50
2019-05-16T09:22:24.941Z,36.20
2019-05-16T09:27:30.860Z,36.70
2019-05-16T09:32:37.221Z,39.50
2019-05-16T09:37:43.684Z,41.20
2019-05-16T09:42:50.284Z,42.10
2019-05-16T09:47:57.508Z,42.60
2019-05-16T09:53:03.743Z,42.80
2019-05-16T09:58:09.654Z,43.50
2019-05-16T10:03:20.260Z,43.90
2019-05-16T10:08:26.543Z,44.50
2019-05-16T10:13:31.235Z,45.10
2019-05-16T10:18:38.392Z,44.90
2019-05-16T10:23:44.217Z,44.80
2019-05-16T10:28:49.781Z,45.30
2019-05-16T10:33:58.080Z,44.30
2019-05-16T10:39:07.526Z,44.40
2019-05-16T10:44:13.091Z,44.20
2019-05-16T10:49:33.172Z,44.30
2019-05-16T10:54:28.292Z,44.30
2019-05-16T10:59:57.993Z,44.30
2019-05-16T11:04:57.200Z,44.40
2019-05-16T11:09:58.361Z,44.30
2019-05-16T11:14:58.292Z,44.30
2019-05-16T11:20:04.692Z,44.40
2019-05-16T11:25:24.824Z,44.30
2019-05-16T11:30:21.054Z,44.20
2019-05-16T11:35:27.901Z,44.40
2019-05-16T11:40:34.583Z,44.50
2019-05-16T11:45:41.132Z,44.50
2019-05-16T11:50:47.966Z,44.80
2019-05-16T11:55:59.962Z,44.70
2019-05-16T12:01:02.033Z,44.60
2019-05-16T12:06:10.256Z,44.60
2019-05-16T12:11:17.928Z,44.50
2019-05-16T12:16:23.863Z,44.50
2019-05-16T12:21:29.892Z,44.40
2019-05-16T12:26:37.263Z,44.40
2019-05-16T12:31:55.349Z,44.30
2019-05-16T12:36:52.767Z,44.50
2019-05-16T12:42:00.184Z,44.20
2019-05-16T12:47:07.619Z,39.30
2019-05-16T12:52:15.651Z,42.70
2019-05-16T12:57:27.629Z,43.30
2019-05-16T13:02:30.451Z,43.80
2019-05-16T13:07:37.817Z,44.30
2019-05-16T13:12:44.413Z,44.50
2019-05-16T13:17:50.261Z,44.60
2019-05-16T13:22:56.678Z,45.00
2019-05-16T13:28:03.712Z,45.10
2019-05-16T13:33:09.571Z,45.50
2019-05-16T13:38:17.285Z,40.00
2019-05-16T13:43:23.281Z,41.50
2019-05-16T13:48:30.367Z,41.80
2019-05-16T13:53:40.004Z,41.40
2019-05-16T13:58:47.048Z,41.30
2019-05-16T14:03:53.013Z,40.90
2019-05-16T14:08:59.571Z,39.70
2019-05-16T14:14:06.161Z,38.30
2019-05-16T14:19:12.705Z,38.30
2019-05-16T14:24:19.730Z,40.20
2019-05-16T14:29:27.879Z,39.40
2019-05-16T14:34:38.541Z,40.90
2019-05-16T14:39:44.533Z,41.60
2019-05-16T14:45:06.573Z,41.90
2019-05-16T14:49:58.772Z,41.20
2019-05-16T14:55:07.206Z,39.70
2019-05-16T15:00:13.762Z,37.90
2019-05-16T15:05:19.863Z,38.50
2019-05-16T15:10:26.974Z,37.60
2019-05-16T15:15:33.701Z,37.30
2019-05-16T15:20:40.142Z,37.00
2019-05-16T15:25:49.322Z,36.60
2019-05-16T15:30:57.457Z,36.10
2019-05-16T15:36:03.407Z,37.10
2019-05-16T15:41:09.361Z,36.50
2019-05-16T15:46:17.265Z,36.90
2019-05-16T15:51:23.932Z,38.10
2019-05-16T15:56:30.243Z,38.80
2019-05-16T16:01:37.751Z,37.70
2019-05-16T16:06:47.165Z,36.90
2019-05-16T16:11:52.042Z,38.30
2019-05-16T16:17:00.641Z,39.10
2019-05-16T16:22:07.646Z,39.20
2019-05-16T16:27:16.778Z,41.00
2019-05-16T16:32:22.312Z,40.90
2019-05-16T16:37:28.211Z,41.30
2019-05-16T16:42:37.129Z,41.60
2019-05-16T16:47:42.261Z,41.70
2019-05-16T16:52:49.074Z,41.80
2019-05-16T16:57:59.548Z,42.00
2019-05-16T17:03:09.372Z,42.40
2019-05-16T17:08:13.262Z,42.60
2019-05-16T17:13:19.980Z,42.50
2019-05-16T17:18:27.586Z,42.80
2019-05-16T17:23:33.633Z,43.00
2019-05-16T17:28:40.152Z,43.10
2019-05-16T17:33:46.098Z,43.20
2019-05-16T17:38:53.691Z,43.30
2019-05-16T17:43:59.980Z,43.50
2019-05-16T17:49:07.379Z,43.70
2019-05-16T17:54:13.451Z,43.90
2019-05-16T17:59:20.161Z,44.00
2019-05-16T18:04:26.841Z,44.00
2019-05-16T18:09:32.641Z,43.90
2019-05-16T18:14:38.472Z,44.00
2019-05-16T18:19:46.479Z,44.10
2019-05-16T18:24:52.661Z,44.00
2019-05-16T18:29:58.770Z,44.20
2019-05-16T18:35:07.365Z,44.20
2019-05-16T18:40:16.376Z,44.30
2019-05-16T18:45:21.161Z,44.40
2019-05-16T18:50:27.711Z,44.40
2019-05-16T18:55:36.783Z,44.50
2019-05-16T19:00:42.981Z,44.50
2019-05-16T19:05:50.192Z,44.60
2019-05-16T19:10:56.878Z,44.70
2019-05-16T19:16:06.329Z,44.80
2019-05-16T19:21:16.881Z,44.90
2019-05-16T19:26:22.453Z,44.80
2019-05-16T19:31:29.172Z,44.80
2019-05-16T19:36:36.172Z,41.40
2019-05-16T19:41:43.761Z,43.90
2019-05-16T19:46:49.603Z,44.50
2019-05-16T19:51:56.573Z,44.60
2019-05-16T19:57:03.321Z,44.70
2019-05-16T20:02:09.991Z,44.70
2019-05-16T20:07:16.777Z,44.70
2019-05-16T20:12:23.525Z,44.70
2019-05-16T20:17:29.420Z,44.60
2019-05-16T20:22:36.937Z,44.60
2019-05-16T20:27:43.732Z,44.60
2019-05-16T20:32:49.704Z,44.60
2019-05-16T20:37:56.172Z,44.70
2019-05-16T20:43:02.121Z,44.60
2019-05-16T20:48:14.661Z,44.60
2019-05-16T20:53:17.686Z,44.60
2019-05-16T20:58:23.871Z,45.30
2019-05-16T21:03:29.766Z,44.60
2019-05-16T21:08:37.075Z,44.60
2019-05-16T21:13:48.621Z,44.50
2019-05-16T21:18:53.760Z,44.50
2019-05-16T21:23:59.862Z,44.50
2019-05-16T21:29:07.527Z,44.40
2019-05-16T21:34:13.491Z,44.50
2019-05-16T21:39:19.343Z,44.40
2019-05-16T21:44:28.960Z,43.90
2019-05-16T21:49:36.603Z,44.00
2019-05-16T21:54:43.422Z,44.20
2019-05-16T21:59:49.561Z,44.20
2019-05-16T22:04:56.852Z,44.30
2019-05-16T22:10:02.751Z,44.40
2019-05-16T22:15:08.932Z,44.30
2019-05-16T22:20:16.559Z,44.40
2019-05-16T22:25:22.281Z,44.50
2019-05-16T22:30:27.961Z,44.40
2019-05-16T22:35:33.790Z,44.50
2019-05-16T22:40:39.592Z,44.40
2019-05-16T22:45:46.800Z,44.40
2019-05-16T22:50:56.338Z,44.50
2019-05-16T22:56:01.788Z,44.40
2019-05-16T23:01:07.684Z,44.30
2019-05-16T23:06:13.442Z,44.40
2019-05-16T23:11:19.273Z,44.50
2019-05-16T23:16:26.683Z,44.40
2019-05-16T23:21:32.932Z,44.40
2019-05-16T23:26:39.321Z,44.40
2019-05-16T23:31:47.180Z,44.40
2019-05-16T23:36:53.720Z,44.40
2019-05-16T23:41:59.341Z,44.30
2019-05-16T23:47:07.060Z,44.30
2019-05-16T23:52:12.842Z,44.30
2019-05-16T23:57:18.963Z,44.30
